Time;durP1;ratioP1;P1;durP2;ratioP2;P2;SDS_P1;SDS_P2;PMS_P1;PMS_P2;Temp;Humidity;BMP_temperature;BMP_pressure;BME280_temperature;BME280_humidity;BME280_pressure;Samples;Min_cycle;Max_cycle;Signal;HPM_P1;HPM_P2
2022/05/18 00:00:48;;;;;;;;;;;18.10;85.20;;;;;;4988047;28;20027;-79
2022/05/18 00:03:14;;;;;;;;;;;18.10;85.30;;;;;;5004700;28;20598;-79
2022/05/18 00:05:40;;;;;;;;;;;18.10;85.40;;;;;;4990248;28;19953;-78
2022/05/18 00:08:06;;;;;;;;;;;18.10;85.40;;;;;;4991440;28;19925;-78
2022/05/18 00:10:32;;;;;;;;;;;18.00;85.40;;;;;;5005688;28;20289;-79
2022/05/18 00:12:58;;;;;;;;;;;18.00;85.40;;;;;;5010301;28;19914;-79
2022/05/18 00:15:24;;;;;;;;;;;18.00;85.20;;;;;;5009978;28;20016;-79
2022/05/18 00:17:50;;;;;;;;;;;17.90;85.40;;;;;;5008923;28;19964;-79
2022/05/18 00:20:15;;;;;;;;;;;17.90;85.30;;;;;;5015165;28;19913;-78
2022/05/18 00:22:51;;;;;;;;;;;17.90;85.40;;;;;;5007130;28;19922;-78
2022/05/18 00:25:18;;;;;;;;;;;17.80;85.30;;;;;;5005599;28;19914;-79
2022/05/18 00:27:44;;;;;;;;;;;17.80;85.20;;;;;;5000559;28;19917;-79
2022/05/18 00:30:11;;;;;;;;;;;17.80;85.30;;;;;;4995020;28;19922;-79
2022/05/18 00:32:36;;;;;;;;;;;17.80;85.30;;;;;;5009671;28;19957;-79
2022/05/18 00:35:03;;;;;;;;;;;17.70;85.40;;;;;;5016110;28;19979;-79
2022/05/18 00:37:28;;;;;;;;;;;17.70;85.30;;;;;;4999231;28;20369;-79
2022/05/18 00:39:53;;;;;;;;;;;17.60;85.40;;;;;;4997369;28;19958;-78
2022/05/18 00:42:20;;;;;;;;;;;17.60;85.50;;;;;;4993140;28;20064;-79
2022/05/18 00:44:46;;;;;;;;;;;17.60;85.50;;;;;;5003935;28;20696;-79
2022/05/18 00:47:11;;;;;;;;;;;17.60;85.40;;;;;;4988366;28;20021;-78
2022/05/18 00:49:37;;;;;;;;;;;17.60;85.30;;;;;;5000904;28;19913;-78
2022/05/18 00:52:03;;;;;;;;;;;17.60;85.00;;;;;;4982681;28;19914;-78
2022/05/18 00:54:30;;;;;;;;;;;17.50;85.10;;;;;;4981184;28;20027;-81
2022/05/18 00:57:05;;;;;;;;;;;17.50;85.20;;;;;;4973920;28;19920;-78
2022/05/18 00:59:37;;;;;;;;;;;17.50;85.20;;;;;;4983286;28;20479;-78
2022/05/18 01:02:03;;;;;;;;;;;17.50;85.00;;;;;;4981674;28;19924;-78
2022/05/18 01:04:29;;;;;;;;;;;17.40;84.80;;;;;;5003520;28;19943;-79
2022/05/18 01:06:58;;;;;;;;;;;17.40;84.70;;;;;;5004528;28;20374;-79
2022/05/18 01:09:26;;;;;;;;;;;17.30;84.40;;;;;;4984615;28;19925;-79
2022/05/18 01:11:52;;;;;;;;;;;17.40;84.30;;;;;;4992987;28;19964;-79
2022/05/18 01:14:20;;;;;;;;;;;17.40;84.20;;;;;;5008800;28;19918;-79
2022/05/18 01:16:46;;;;;;;;;;;17.30;84.00;;;;;;5011307;28;19921;-79
2022/05/18 01:19:19;;;;;;;;;;;17.40;83.70;;;;;;5012362;28;19968;-79
2022/05/18 01:21:49;;;;;;;;;;;17.40;83.00;;;;;;4994613;28;19914;-80
2022/05/18 01:24:21;;;;;;;;;;;17.40;83.10;;;;;;5006926;28;19918;-79
2022/05/18 01:26:47;;;;;;;;;;;17.40;82.60;;;;;;5009734;28;20270;-80
2022/05/18 01:29:14;;;;;;;;;;;17.40;82.10;;;;;;5007964;28;19924;-79
2022/05/18 01:31:45;;;;;;;;;;;17.50;81.30;;;;;;5001633;28;20184;-79
2022/05/18 01:34:11;;;;;;;;;;;17.60;80.50;;;;;;5010444;28;19921;-79
2022/05/18 01:36:37;;;;;;;;;;;17.60;80.20;;;;;;4998955;28;19914;-79
2022/05/18 01:39:03;;;;;;;;;;;17.70;79.10;;;;;;5008152;28;19914;-80
2022/05/18 01:41:29;;;;;;;;;;;17.70;78.50;;;;;;5007335;28;19918;-79
2022/05/18 01:43:59;;;;;;;;;;;17.90;77.90;;;;;;4994379;28;19980;-79
2022/05/18 01:46:26;;;;;;;;;;;18.00;77.20;;;;;;5007805;28;19925;-79
2022/05/18 01:48:52;;;;;;;;;;;18.00;76.60;;;;;;5010808;28;20339;-79
2022/05/18 01:51:28;;;;;;;;;;;18.10;76.70;;;;;;5014477;28;19914;-79
2022/05/18 01:53:54;;;;;;;;;;;18.20;76.10;;;;;;4986241;28;19914;-79
2022/05/18 01:56:20;;;;;;;;;;;18.20;75.40;;;;;;4991352;28;19933;-79
2022/05/18 01:58:46;;;;;;;;;;;18.20;75.70;;;;;;4996072;28;19960;-79
2022/05/18 02:01:11;;;;;;;;;;;18.20;74.90;;;;;;4995067;28;20421;-79
2022/05/18 02:03:37;;;;;;;;;;;18.30;75.00;;;;;;5012083;28;19924;-79
2022/05/18 02:06:02;;;;;;;;;;;18.30;75.00;;;;;;4994457;28;20048;-79
2022/05/18 02:08:28;;;;;;;;;;;18.30;75.00;;;;;;4992749;28;19937;-79
2022/05/18 02:10:53;;;;;;;;;;;18.40;74.40;;;;;;5011797;28;19931;-79
2022/05/18 02:13:20;;;;;;;;;;;18.40;74.00;;;;;;5009798;28;19924;-79
2022/05/18 02:15:46;;;;;;;;;;;18.50;74.10;;;;;;4989037;28;20405;-79
2022/05/18 02:18:11;;;;;;;;;;;18.40;74.10;;;;;;5012198;28;19998;-79
2022/05/18 02:20:37;;;;;;;;;;;18.40;74.50;;;;;;4999669;28;19913;-79
2022/05/18 02:23:03;;;;;;;;;;;18.40;73.50;;;;;;5008315;28;19925;-79
2022/05/18 02:25:28;;;;;;;;;;;18.40;73.70;;;;;;5012149;28;20386;-79
2022/05/18 02:27:54;;;;;;;;;;;18.50;73.20;;;;;;5005422;28;20231;-79
2022/05/18 02:30:19;;;;;;;;;;;18.50;73.00;;;;;;4994578;28;20111;-79
2022/05/18 02:32:45;;;;;;;;;;;18.50;73.30;;;;;;4994883;28;19965;-79
2022/05/18 02:35:10;;;;;;;;;;;18.50;73.20;;;;;;5014548;28;19918;-80
2022/05/18 02:37:36;;;;;;;;;;;18.40;73.10;;;;;;5012327;28;19918;-79
2022/05/18 02:40:02;;;;;;;;;;;18.40;72.70;;;;;;5005875;28;19918;-79
2022/05/18 02:42:27;;;;;;;;;;;18.50;72.70;;;;;;5015222;28;19914;-80
2022/05/18 02:44:53;;;;;;;;;;;18.50;73.30;;;;;;5014555;28;19918;-79
2022/05/18 02:47:20;;;;;;;;;;;18.50;72.50;;;;;;5011261;28;19917;-79
2022/05/18 02:49:46;;;;;;;;;;;18.50;72.70;;;;;;4996977;28;20315;-79
2022/05/18 02:52:11;;;;;;;;;;;18.50;72.50;;;;;;5016730;28;19925;-79
2022/05/18 02:57:21;;;;;;;;;;;18.60;72.00;;;;;;5004387;28;19941;-80
2022/05/18 02:59:46;;;;;;;;;;;18.60;71.60;;;;;;5016765;28;19913;-79
2022/05/18 03:02:12;;;;;;;;;;;18.60;71.90;;;;;;5016948;28;19933;-79
2022/05/18 03:04:37;;;;;;;;;;;18.50;72.00;;;;;;5016766;28;19929;-80
2022/05/18 03:07:03;;;;;;;;;;;18.50;72.20;;;;;;5019819;28;19945;-79
2022/05/18 03:09:29;;;;;;;;;;;18.50;72.20;;;;;;5000263;28;19924;-78
2022/05/18 03:11:55;;;;;;;;;;;18.50;71.60;;;;;;5002883;28;19953;-80
2022/05/18 03:14:20;;;;;;;;;;;18.60;71.70;;;;;;5003035;28;19997;-81
2022/05/18 03:16:46;;;;;;;;;;;18.60;71.60;;;;;;5005614;28;19972;-80
2022/05/18 03:19:12;;;;;;;;;;;18.60;71.60;;;;;;4984793;28;19918;-80
2022/05/18 03:24:22;;;;;;;;;;;18.60;71.60;;;;;;4989493;28;20330;-80
2022/05/18 03:26:48;;;;;;;;;;;18.60;71.70;;;;;;5000627;28;19961;-79
2022/05/18 03:29:14;;;;;;;;;;;18.60;71.60;;;;;;5000080;28;19913;-79
2022/05/18 03:31:40;;;;;;;;;;;18.60;71.60;;;;;;5006570;28;20049;-78
2022/05/18 03:34:08;;;;;;;;;;;18.60;71.80;;;;;;5004187;28;19939;-79
2022/05/18 03:36:33;;;;;;;;;;;18.50;72.30;;;;;;5012525;28;20041;-79
2022/05/18 03:38:59;;;;;;;;;;;18.50;72.30;;;;;;5000304;28;19953;-79
2022/05/18 03:41:24;;;;;;;;;;;18.50;71.70;;;;;;5011126;28;19914;-79
2022/05/18 03:43:50;;;;;;;;;;;18.50;72.30;;;;;;5011469;28;19918;-79
2022/05/18 03:46:15;;;;;;;;;;;18.50;72.40;;;;;;4992240;28;19937;-79
2022/05/18 03:48:41;;;;;;;;;;;18.50;72.30;;;;;;5014161;28;19918;-79
2022/05/18 03:51:08;;;;;;;;;;;18.60;72.30;;;;;;4995220;28;19915;-80
2022/05/18 03:53:34;;;;;;;;;;;18.50;72.00;;;;;;5013038;28;19941;-79
2022/05/18 03:56:00;;;;;;;;;;;18.60;71.40;;;;;;5005594;28;20119;-79
2022/05/18 03:58:26;;;;;;;;;;;18.60;71.50;;;;;;4995032;28;20091;-79
2022/05/18 04:00:53;;;;;;;;;;;18.60;71.70;;;;;;4994637;28;19933;-79
2022/05/18 04:03:19;;;;;;;;;;;18.60;71.60;;;;;;5011380;28;19918;-79
2022/05/18 04:05:48;;;;;;;;;;;18.60;71.50;;;;;;5014157;28;20004;-79
2022/05/18 04:08:13;;;;;;;;;;;18.60;72.20;;;;;;5009274;28;19914;-79
2022/05/18 04:10:39;;;;;;;;;;;18.60;72.00;;;;;;4999550;28;20219;-80
2022/05/18 04:13:05;;;;;;;;;;;18.60;72.30;;;;;;5004739;28;19925;-79
2022/05/18 04:15:31;;;;;;;;;;;18.60;72.50;;;;;;5017289;28;19956;-79
2022/05/18 04:17:58;;;;;;;;;;;18.60;71.90;;;;;;5002321;28;19929;-80
2022/05/18 04:20:24;;;;;;;;;;;18.70;71.30;;;;;;5018742;28;19941;-80
2022/05/18 04:22:49;;;;;;;;;;;18.60;72.10;;;;;;5004012;28;20374;-80
2022/05/18 04:25:17;;;;;;;;;;;18.70;71.80;;;;;;5020658;28;19913;-80
2022/05/18 04:27:43;;;;;;;;;;;18.70;72.00;;;;;;5004415;28;19924;-80
2022/05/18 04:30:09;;;;;;;;;;;18.80;71.70;;;;;;5018524;28;19918;-80
2022/05/18 04:32:37;;;;;;;;;;;18.80;72.00;;;;;;5014955;28;19917;-79
2022/05/18 04:35:02;;;;;;;;;;;18.80;71.60;;;;;;5003731;28;19921;-79
2022/05/18 04:37:28;;;;;;;;;;;18.90;71.60;;;;;;4998035;28;19937;-80
2022/05/18 04:39:53;;;;;;;;;;;18.90;71.50;;;;;;4996588;28;20264;-79
2022/05/18 04:42:22;;;;;;;;;;;18.90;71.60;;;;;;5001840;28;20272;-79
2022/05/18 04:44:51;;;;;;;;;;;19.00;71.50;;;;;;5017679;28;19940;-79
2022/05/18 04:47:19;;;;;;;;;;;19.00;71.70;;;;;;5016471;28;20170;-80
2022/05/18 04:49:45;;;;;;;;;;;19.10;71.40;;;;;;5016942;28;19914;-79
2022/05/18 04:52:10;;;;;;;;;;;19.10;70.90;;;;;;5017240;28;19956;-80
2022/05/18 04:54:36;;;;;;;;;;;19.10;71.30;;;;;;4997374;28;20913;-80
2022/05/18 04:57:04;;;;;;;;;;;19.20;70.70;;;;;;4998549;28;19933;-80
2022/05/18 04:59:29;;;;;;;;;;;19.40;70.00;;;;;;5003124;28;19914;-80
2022/05/18 05:01:55;;;;;;;;;;;19.60;69.90;;;;;;4996174;28;19934;-80
2022/05/18 05:04:21;;;;;;;;;;;19.60;69.50;;;;;;4996403;28;19926;-80
2022/05/18 05:06:46;;;;;;;;;;;19.60;69.70;;;;;;5020927;28;19924;-80
2022/05/18 05:09:12;;;;;;;;;;;19.70;69.20;;;;;;5020090;28;19938;-80
2022/05/18 05:11:37;;;;;;;;;;;19.90;68.80;;;;;;4998417;28;19913;-79
2022/05/18 05:14:03;;;;;;;;;;;20.00;68.70;;;;;;5002405;28;20636;-79
2022/05/18 05:16:29;;;;;;;;;;;20.00;68.90;;;;;;4999170;28;20032;-79
2022/05/18 05:18:55;;;;;;;;;;;20.00;68.40;;;;;;5007545;28;19945;-79
2022/05/18 05:21:21;;;;;;;;;;;20.10;68.90;;;;;;5002935;28;19956;-77
2022/05/18 05:23:50;;;;;;;;;;;20.20;68.40;;;;;;4990177;28;20235;-77
2022/05/18 05:26:15;;;;;;;;;;;20.20;68.00;;;;;;4996479;28;19914;-79
2022/05/18 05:28:41;;;;;;;;;;;20.20;68.40;;;;;;4994269;28;19937;-78
2022/05/18 05:31:07;;;;;;;;;;;20.40;67.30;;;;;;4988766;28;19941;-79
2022/05/18 05:33:33;;;;;;;;;;;20.50;68.10;;;;;;4999513;28;19914;-79
2022/05/18 05:35:59;;;;;;;;;;;20.60;66.70;;;;;;4999507;28;19925;-79
2022/05/18 05:38:25;;;;;;;;;;;20.80;66.70;;;;;;5016215;28;19918;-78
2022/05/18 05:40:51;;;;;;;;;;;21.00;65.90;;;;;;4989305;28;19987;-78
2022/05/18 05:43:16;;;;;;;;;;;21.10;65.30;;;;;;5018809;28;19918;-82
2022/05/18 05:45:42;;;;;;;;;;;21.10;65.10;;;;;;4995018;28;19918;-78
2022/05/18 05:48:08;;;;;;;;;;;21.20;65.10;;;;;;5004549;28;19924;-79
2022/05/18 05:50:34;;;;;;;;;;;21.30;66.50;;;;;;5008347;28;20328;-77
2022/05/18 05:53:00;;;;;;;;;;;21.30;65.10;;;;;;5006082;28;19914;-77
2022/05/18 05:55:26;;;;;;;;;;;21.40;65.60;;;;;;5007371;28;20267;-77
2022/05/18 05:57:53;;;;;;;;;;;21.20;65.10;;;;;;4991984;28;19918;-78
2022/05/18 06:00:18;;;;;;;;;;;21.20;65.00;;;;;;4983699;28;19926;-77
2022/05/18 06:02:44;;;;;;;;;;;21.10;65.30;;;;;;4992696;28;19939;-77
2022/05/18 06:05:10;;;;;;;;;;;21.20;65.40;;;;;;4987259;28;19914;-77
2022/05/18 06:07:35;;;;;;;;;;;21.30;65.30;;;;;;5003378;28;19921;-78
2022/05/18 06:10:01;;;;;;;;;;;21.10;65.80;;;;;;4991662;28;19953;-78
2022/05/18 06:12:28;;;;;;;;;;;21.00;66.20;;;;;;4987996;28;19925;-77
2022/05/18 06:14:53;;;;;;;;;;;21.20;65.50;;;;;;5009207;28;19937;-77
2022/05/18 06:17:19;;;;;;;;;;;21.20;66.00;;;;;;4997193;28;20258;-77
2022/05/18 06:19:44;;;;;;;;;;;21.40;65.20;;;;;;5006699;28;20014;-79
2022/05/18 06:22:10;;;;;;;;;;;21.50;65.20;;;;;;5024614;28;19918;-80
2022/05/18 06:24:36;;;;;;;;;;;21.30;65.90;;;;;;5021602;28;19921;-80
2022/05/18 06:27:01;;;;;;;;;;;21.30;65.50;;;;;;5016687;28;19941;-80
2022/05/18 06:29:27;;;;;;;;;;;21.30;66.00;;;;;;5024387;28;19955;-80
2022/05/18 06:31:53;;;;;;;;;;;21.30;66.00;;;;;;5023166;28;19914;-80
2022/05/18 06:34:21;;;;;;;;;;;21.60;65.60;;;;;;4992184;28;19914;-80
2022/05/18 06:36:47;;;;;;;;;;;21.70;64.70;;;;;;5006562;28;20017;-80
2022/05/18 06:39:13;;;;;;;;;;;21.60;64.90;;;;;;4995214;28;19913;-79
2022/05/18 06:41:38;;;;;;;;;;;21.60;65.00;;;;;;4990848;28;19913;-77
2022/05/18 06:44:04;;;;;;;;;;;21.70;64.20;;;;;;4988056;28;19918;-78
2022/05/18 06:46:31;;;;;;;;;;;21.70;64.60;;;;;;4990977;28;19918;-80
2022/05/18 06:48:57;;;;;;;;;;;21.90;63.70;;;;;;5003958;28;19940;-78
2022/05/18 06:51:25;;;;;;;;;;;21.90;64.70;;;;;;4989369;28;19925;-77
2022/05/18 06:53:51;;;;;;;;;;;22.00;63.90;;;;;;4991138;28;19914;-79
2022/05/18 06:56:19;;;;;;;;;;;21.90;64.60;;;;;;4985168;28;19914;-77
2022/05/18 06:58:46;;;;;;;;;;;22.00;64.00;;;;;;4998856;28;19922;-79
2022/05/18 07:01:11;;;;;;;;;;;22.00;64.20;;;;;;4997497;28;19918;-77
2022/05/18 07:03:36;;;;;;;;;;;22.10;63.00;;;;;;4990531;28;19918;-78
2022/05/18 07:06:03;;;;;;;;;;;22.10;63.30;;;;;;5001398;28;19918;-78
2022/05/18 07:08:28;;;;;;;;;;;22.20;62.20;;;;;;5005074;28;19929;-78
2022/05/18 07:10:54;;;;;;;;;;;22.30;61.20;;;;;;4985671;28;19921;-81
2022/05/18 07:13:19;;;;;;;;;;;22.30;60.30;;;;;;5005598;28;20001;-78
2022/05/18 07:15:45;;;;;;;;;;;22.40;60.50;;;;;;4990495;28;19957;-77
2022/05/18 07:18:10;;;;;;;;;;;22.60;60.50;;;;;;4977777;28;19914;-80
2022/05/18 07:20:36;;;;;;;;;;;22.60;61.10;;;;;;4996401;28;20040;-81
2022/05/18 07:23:01;;;;;;;;;;;22.70;61.80;;;;;;4984485;28;20309;-81
2022/05/18 07:25:27;;;;;;;;;;;22.60;61.80;;;;;;4992436;28;20035;-80
2022/05/18 07:27:53;;;;;;;;;;;22.60;61.50;;;;;;4993089;28;20069;-79
2022/05/18 07:30:18;;;;;;;;;;;22.80;61.40;;;;;;5006767;28;20000;-77
2022/05/18 07:32:44;;;;;;;;;;;22.80;62.50;;;;;;4972923;28;19914;-78
2022/05/18 07:35:09;;;;;;;;;;;23.00;61.40;;;;;;4987237;28;19914;-78
2022/05/18 07:37:35;;;;;;;;;;;23.00;60.90;;;;;;4990223;28;19977;-79
2022/05/18 07:40:01;;;;;;;;;;;23.00;60.40;;;;;;4993761;28;19921;-78
2022/05/18 07:42:26;;;;;;;;;;;23.10;59.90;;;;;;4980996;28;19989;-79
2022/05/18 07:44:52;;;;;;;;;;;23.20;60.00;;;;;;4988336;28;19922;-78
2022/05/18 07:47:20;;;;;;;;;;;23.20;59.70;;;;;;4976069;28;19918;-80
2022/05/18 07:49:45;;;;;;;;;;;23.20;60.70;;;;;;4990475;28;19914;-80
2022/05/18 07:52:12;;;;;;;;;;;23.30;59.70;;;;;;4990646;28;19924;-78
2022/05/18 07:54:37;;;;;;;;;;;23.30;58.90;;;;;;5000389;28;19914;-78
2022/05/18 07:57:06;;;;;;;;;;;23.40;58.80;;;;;;4988232;28;19929;-79
2022/05/18 07:59:32;;;;;;;;;;;23.50;58.70;;;;;;5001482;28;20334;-80
2022/05/18 08:01:58;;;;;;;;;;;23.60;58.60;;;;;;5041080;22;20358;-81
2022/05/18 08:04:24;;;;;;;;;;;23.70;57.60;;;;;;5048983;28;19964;-83
2022/05/18 08:06:49;;;;;;;;;;;23.70;57.70;;;;;;5035509;28;20007;-82
2022/05/18 08:09:15;;;;;;;;;;;23.80;57.40;;;;;;5030692;28;19909;-81
2022/05/18 08:17:17;;;;;;;;;;;23.80;56.60;;;;;;4992927;28;20427;-77
2022/05/18 08:19:42;;;;;;;;;;;23.80;58.50;;;;;;5016111;28;19917;-77
2022/05/18 08:22:08;;;;;;;;;;;23.90;57.90;;;;;;5024202;28;19928;-78
2022/05/18 08:24:36;;;;;;;;;;;24.00;56.60;;;;;;5018902;28;19921;-77
2022/05/18 08:27:03;;;;;;;;;;;24.10;56.50;;;;;;4989161;28;19993;-78
2022/05/18 08:29:29;;;;;;;;;;;24.20;56.20;;;;;;5019198;28;19917;-77
2022/05/18 08:31:56;;;;;;;;;;;24.10;57.10;;;;;;5007428;28;19975;-78
2022/05/18 08:34:21;;;;;;;;;;;24.20;56.10;;;;;;5016223;28;19913;-77
2022/05/18 08:36:47;;;;;;;;;;;24.40;55.30;;;;;;5016680;28;19917;-77
2022/05/18 08:39:12;;;;;;;;;;;24.40;56.50;;;;;;5020672;28;19920;-78
2022/05/18 08:41:45;;;;;;;;;;;24.50;54.90;;;;;;5015153;28;19953;-77
2022/05/18 08:44:19;;;;;;;;;;;24.50;55.30;;;;;;5022249;28;19925;-79
2022/05/18 08:47:05;;;;;;;;;;;24.70;54.10;;;;;;5018208;28;19913;-79
2022/05/18 08:49:36;;;;;;;;;;;24.60;54.40;;;;;;5019386;28;19951;-78
2022/05/18 08:52:02;;;;;;;;;;;24.60;54.20;;;;;;5018209;28;20326;-78
2022/05/18 08:54:52;;;;;;;;;;;24.70;53.90;;;;;;5015875;28;19922;-77
2022/05/18 08:57:19;;;;;;;;;;;24.80;53.40;;;;;;5018498;28;20310;-79
2022/05/18 08:59:46;;;;;;;;;;;24.90;53.00;;;;;;5010029;28;19909;-77
2022/05/18 09:02:16;;;;;;;;;;;24.90;52.00;;;;;;5000056;28;19909;-78
2022/05/18 09:04:53;;;;;;;;;;;25.00;52.10;;;;;;5025072;28;19925;-78
2022/05/18 09:07:21;;;;;;;;;;;24.90;52.60;;;;;;5030636;28;20308;-80
2022/05/18 09:10:14;;;;;;;;;;;24.90;54.30;;;;;;5028175;28;20063;-80
2022/05/18 09:12:41;;;;;;;;;;;25.00;54.60;;;;;;5014890;28;19976;-79
2022/05/18 09:15:08;;;;;;;;;;;25.10;53.50;;;;;;4997091;28;19913;-77
2022/05/18 09:17:54;;;;;;;;;;;25.10;54.10;;;;;;5024783;28;19913;-78
2022/05/18 09:20:24;;;;;;;;;;;25.20;53.10;;;;;;5018630;28;19917;-76
2022/05/18 09:23:02;;;;;;;;;;;25.20;53.80;;;;;;5022701;28;19920;-80
2022/05/18 09:25:33;;;;;;;;;;;25.20;52.50;;;;;;5024983;28;19913;-79
2022/05/18 09:28:10;;;;;;;;;;;25.30;51.60;;;;;;5031418;28;19920;-78
2022/05/18 09:30:42;;;;;;;;;;;25.30;52.00;;;;;;5017002;28;19932;-79
2022/05/18 09:33:10;;;;;;;;;;;25.50;51.10;;;;;;5010823;28;19913;-78
2022/05/18 09:35:55;;;;;;;;;;;25.50;51.10;;;;;;5024333;28;20003;-77
2022/05/18 09:38:33;;;;;;;;;;;25.60;51.10;;;;;;5015304;28;19935;-77
2022/05/18 09:41:00;;;;;;;;;;;25.70;51.00;;;;;;4999657;28;19913;-77
2022/05/18 09:43:33;;;;;;;;;;;25.70;50.20;;;;;;4999088;28;20317;-77
2022/05/18 09:45:59;;;;;;;;;;;25.80;49.70;;;;;;5021087;28;20006;-78
2022/05/18 09:48:39;;;;;;;;;;;25.80;49.20;;;;;;5012057;28;19952;-78
2022/05/18 09:51:06;;;;;;;;;;;25.90;48.40;;;;;;5036585;28;19924;-78
2022/05/18 09:53:32;;;;;;;;;;;25.90;48.70;;;;;;5023588;28;19909;-77
2022/05/18 09:55:58;;;;;;;;;;;25.90;49.60;;;;;;5018865;28;19913;-78
2022/05/18 09:58:29;;;;;;;;;;;25.90;49.30;;;;;;5023303;28;19929;-79
2022/05/18 10:09:42;;;;;;;;;;;26.10;48.50;;;;;;5024064;28;19975;-80
2022/05/18 10:12:31;;;;;;;;;;;26.10;48.80;;;;;;5035836;28;20313;-80
2022/05/18 10:14:58;;;;;;;;;;;26.30;49.40;;;;;;5038845;28;19924;-80
2022/05/18 10:17:29;;;;;;;;;;;26.40;48.80;;;;;;5037769;28;19956;-80
2022/05/18 10:20:00;;;;;;;;;;;26.50;49.10;;;;;;5019552;28;20091;-80
2022/05/18 10:22:28;;;;;;;;;;;26.50;49.50;;;;;;5016660;28;19909;-79
2022/05/18 10:24:57;;;;;;;;;;;26.40;48.00;;;;;;5031818;28;20013;-79
2022/05/18 10:27:26;;;;;;;;;;;26.40;47.10;;;;;;5006094;28;19971;-81
2022/05/18 10:30:04;;;;;;;;;;;26.60;46.50;;;;;;5033628;28;19913;-80
2022/05/18 10:32:31;;;;;;;;;;;26.60;46.80;;;;;;5010850;28;19970;-80
2022/05/18 10:34:58;;;;;;;;;;;26.60;46.10;;;;;;5016549;28;19917;-80
2022/05/18 10:37:37;;;;;;;;;;;26.50;45.50;;;;;;5027736;28;20019;-82
2022/05/18 10:40:03;;;;;;;;;;;26.40;46.30;;;;;;5006954;28;20047;-82
2022/05/18 10:42:42;;;;;;;;;;;26.50;49.40;;;;;;5031898;28;19917;-82
2022/05/18 10:45:26;;;;;;;;;;;26.60;46.40;;;;;;5025075;28;20376;-84
2022/05/18 10:47:53;;;;;;;;;;;26.80;46.70;;;;;;5009724;28;19921;-83
2022/05/18 10:50:20;;;;;;;;;;;26.80;46.40;;;;;;5035146;28;19918;-82
2022/05/18 10:52:47;;;;;;;;;;;27.00;45.00;;;;;;5009462;28;19932;-84
2022/05/18 10:55:18;;;;;;;;;;;27.10;44.90;;;;;;5026838;28;19914;-83
2022/05/18 10:57:59;;;;;;;;;;;27.00;44.50;;;;;;5017925;28;20001;-84
2022/05/18 11:00:44;;;;;;;;;;;27.10;43.90;;;;;;5037462;28;19914;-83
2022/05/18 11:03:15;;;;;;;;;;;27.10;44.20;;;;;;5041141;28;20004;-84
2022/05/18 11:05:46;;;;;;;;;;;27.20;43.80;;;;;;5030038;28;19924;-84
2022/05/18 11:08:17;;;;;;;;;;;27.10;44.20;;;;;;5020012;28;19909;-83
2022/05/18 11:10:45;;;;;;;;;;;27.00;46.40;;;;;;5021578;28;20071;-83
2022/05/18 11:13:17;;;;;;;;;;;27.20;46.20;;;;;;5023541;28;19924;-84
2022/05/18 11:16:01;;;;;;;;;;;27.20;45.40;;;;;;5036536;28;19928;-83
2022/05/18 11:18:38;;;;;;;;;;;27.10;44.00;;;;;;5017173;28;19909;-80
2022/05/18 11:21:10;;;;;;;;;;;27.20;44.00;;;;;;5022288;28;19921;-80
2022/05/18 11:23:51;;;;;;;;;;;27.40;44.80;;;;;;5014221;28;19956;-78
2022/05/18 11:26:33;;;;;;;;;;;27.60;44.00;;;;;;5008801;28;19993;-79
2022/05/18 11:29:13;;;;;;;;;;;27.60;43.10;;;;;;5010999;28;19920;-78
2022/05/18 11:31:39;;;;;;;;;;;27.60;43.20;;;;;;5016464;28;19917;-79
2022/05/18 11:34:04;;;;;;;;;;;27.40;43.50;;;;;;5014587;28;19928;-77
2022/05/18 11:36:36;;;;;;;;;;;27.30;44.70;;;;;;4994740;28;19945;-78
2022/05/18 11:39:07;;;;;;;;;;;27.10;47.10;;;;;;4994789;28;19913;-77
2022/05/18 11:41:50;;;;;;;;;;;27.20;44.20;;;;;;5022411;28;19921;-79
2022/05/18 11:44:20;;;;;;;;;;;27.20;44.70;;;;;;5019247;28;19924;-79
2022/05/18 11:46:57;;;;;;;;;;;27.00;44.70;;;;;;5032142;28;20016;-78
2022/05/18 11:49:24;;;;;;;;;;;27.10;44.10;;;;;;5011444;28;19917;-77
2022/05/18 11:52:09;;;;;;;;;;;27.10;44.20;;;;;;5006148;28;20406;-77
2022/05/18 11:54:53;;;;;;;;;;;27.40;43.40;;;;;;4998622;28;19913;-78
2022/05/18 11:57:38;;;;;;;;;;;27.50;42.70;;;;;;5017585;28;20365;-78
2022/05/18 12:00:27;;;;;;;;;;;27.80;41.70;;;;;;5011217;28;19909;-80
2022/05/18 12:03:14;;;;;;;;;;;27.80;41.70;;;;;;5017360;28;19945;-77
2022/05/18 12:06:03;;;;;;;;;;;27.80;41.10;;;;;;5013481;28;20276;-76
2022/05/18 12:08:40;;;;;;;;;;;27.80;40.20;;;;;;5003079;28;20000;-77
2022/05/18 12:11:13;;;;;;;;;;;27.70;40.50;;;;;;5013844;28;20387;-77
2022/05/18 12:14:03;;;;;;;;;;;27.80;41.70;;;;;;5016680;28;19921;-80
2022/05/18 12:16:48;;;;;;;;;;;27.90;39.70;;;;;;5015045;28;19920;-77
2022/05/18 12:19:52;;;;;;;;;;;27.90;41.20;;;;;;5030491;28;19935;-77
2022/05/18 12:22:22;;;;;;;;;;;28.00;39.00;;;;;;5031438;28;19913;-78
2022/05/18 12:24:49;;;;;;;;;;;28.30;39.80;;;;;;5032614;28;19920;-79
2022/05/18 12:27:15;;;;;;;;;;;28.20;39.10;;;;;;5010574;28;19914;-78
2022/05/18 12:29:41;;;;;;;;;;;28.00;39.60;;;;;;5009585;28;19913;-80
2022/05/18 12:32:09;;;;;;;;;;;28.10;39.90;;;;;;5013003;28;19997;-80
2022/05/18 12:34:35;;;;;;;;;;;28.10;39.50;;;;;;5022447;28;19971;-81
2022/05/18 12:37:13;;;;;;;;;;;28.10;39.20;;;;;;5021105;28;19921;-80
2022/05/18 12:39:47;;;;;;;;;;;28.20;39.80;;;;;;5020370;28;19929;-81
2022/05/18 12:42:23;;;;;;;;;;;28.10;40.00;;;;;;5026065;28;19916;-81
2022/05/18 12:44:51;;;;;;;;;;;28.10;38.90;;;;;;5019714;28;19933;-81
2022/05/18 12:47:52;;;;;;;;;;;28.20;40.20;;;;;;5022950;28;19996;-81
2022/05/18 12:50:20;;;;;;;;;;;28.10;40.20;;;;;;5013773;28;19921;-80
2022/05/18 12:52:55;;;;;;;;;;;28.10;39.80;;;;;;5017520;28;19913;-81
2022/05/18 12:55:23;;;;;;;;;;;28.10;39.20;;;;;;5012082;28;19913;-80
2022/05/18 12:57:51;;;;;;;;;;;28.30;39.30;;;;;;5011809;28;20042;-79
2022/05/18 13:00:19;;;;;;;;;;;28.40;38.40;;;;;;5004063;28;19996;-80
2022/05/18 13:02:52;;;;;;;;;;;28.40;38.00;;;;;;5019539;28;19925;-83
2022/05/18 13:05:24;;;;;;;;;;;28.30;39.60;;;;;;5006700;28;19918;-80
2022/05/18 13:07:49;;;;;;;;;;;28.30;40.00;;;;;;5016629;28;19917;-80
2022/05/18 13:10:17;;;;;;;;;;;28.50;38.30;;;;;;5030125;28;19943;-82
2022/05/18 13:12:57;;;;;;;;;;;28.60;38.50;;;;;;5009605;28;20358;-80
2022/05/18 13:15:46;;;;;;;;;;;28.60;38.10;;;;;;5028690;28;19921;-82
2022/05/18 13:18:28;;;;;;;;;;;28.50;39.40;;;;;;5040438;28;19914;-79
2022/05/18 13:20:59;;;;;;;;;;;28.60;38.80;;;;;;5034530;28;20027;-79
2022/05/18 13:23:34;;;;;;;;;;;28.60;38.70;;;;;;5028883;28;20412;-79
2022/05/18 13:26:02;;;;;;;;;;;28.60;38.70;;;;;;5035654;28;19920;-79
2022/05/18 13:31:12;;;;;;;;;;;28.60;39.90;;;;;;3588738;22;20029;-90
2022/05/18 13:33:42;;;;;;;;;;;28.50;39.90;;;;;;4983555;28;19921;-85
2022/05/18 13:36:07;;;;;;;;;;;28.30;40.50;;;;;;4978644;28;19979;-85
2022/05/18 13:38:33;;;;;;;;;;;28.30;41.50;;;;;;4989134;28;20138;-87
2022/05/18 13:41:01;;;;;;;;;;;28.20;43.00;;;;;;4989146;28;19921;-84
2022/05/18 13:43:29;;;;;;;;;;;28.20;42.60;;;;;;4984590;28;19924;-86
2022/05/18 13:45:56;;;;;;;;;;;28.10;43.00;;;;;;4999689;28;19908;-88
2022/05/18 13:48:24;;;;;;;;;;;28.10;42.10;;;;;;5016986;28;19906;-83
2022/05/18 13:50:52;;;;;;;;;;;28.20;42.70;;;;;;4989158;28;20092;-87
2022/05/18 13:53:22;;;;;;;;;;;28.40;42.50;;;;;;5015535;28;19913;-84
2022/05/18 13:55:49;;;;;;;;;;;28.50;40.40;;;;;;4988725;28;20111;-84
2022/05/18 13:58:17;;;;;;;;;;;28.50;38.40;;;;;;4974132;28;19973;-85
2022/05/18 14:00:53;;;;;;;;;;;28.70;39.50;;;;;;4988848;28;19909;-85
2022/05/18 14:03:20;;;;;;;;;;;28.70;39.20;;;;;;5008077;28;19922;-84
2022/05/18 14:05:46;;;;;;;;;;;28.90;39.00;;;;;;4999828;28;20000;-86
2022/05/18 14:08:33;;;;;;;;;;;29.00;38.60;;;;;;5006156;28;19976;-84
2022/05/18 14:11:03;;;;;;;;;;;28.90;39.00;;;;;;5001117;28;19945;-83
2022/05/18 14:13:29;;;;;;;;;;;29.00;38.50;;;;;;5015035;28;19920;-82
2022/05/18 14:15:55;;;;;;;;;;;29.00;38.60;;;;;;4997597;28;19909;-81
2022/05/18 14:18:23;;;;;;;;;;;29.00;38.10;;;;;;4991437;28;20026;-80
2022/05/18 14:20:51;;;;;;;;;;;29.10;37.50;;;;;;4988833;28;19909;-82
2022/05/18 14:23:22;;;;;;;;;;;29.10;36.80;;;;;;4973527;28;20432;-83
2022/05/18 14:25:51;;;;;;;;;;;29.10;39.60;;;;;;4979928;28;19909;-86
2022/05/18 14:28:21;;;;;;;;;;;29.10;38.20;;;;;;4990173;28;20252;-83
2022/05/18 14:30:47;;;;;;;;;;;29.10;38.60;;;;;;4971583;28;19922;-85
2022/05/18 14:33:35;;;;;;;;;;;29.00;37.50;;;;;;4956781;28;20337;-86
2022/05/18 14:36:04;;;;;;;;;;;29.00;38.20;;;;;;4973315;28;19909;-83
2022/05/18 14:38:31;;;;;;;;;;;29.20;36.80;;;;;;4959433;28;20697;-88
2022/05/18 14:40:58;;;;;;;;;;;29.30;37.20;;;;;;4961826;28;20440;-85
2022/05/18 14:43:27;;;;;;;;;;;29.40;36.90;;;;;;4997285;28;20032;-85
2022/05/18 14:46:02;;;;;;;;;;;29.50;37.50;;;;;;4996012;28;19910;-85
2022/05/18 14:48:29;;;;;;;;;;;29.50;37.30;;;;;;4994252;28;19989;-85